Kayes, Mali
Current Conditions -  °F | °C
As of 6:00 AM on Monday 26 Jan 2015 (Local Time) from GOTT Reporting Station
Clear Clear  
Wind Chill: 68°   Ceiling: Unl
Heat Index: 68°   Visibility: 6mi
Dew Point: 32°   Wind: 7mph
Humidity: 26%   Direction: 40°NE
Pressure: 29.88"   Gusts: NA
Location:  14.45°N, 11.44°W
Report Text: GOTT 260600Z 04006KT CAVOK 20/M00 Q1012
Loading
Personal Weather Stations






























Interactive Weather Map New forecast layout! Learn more

10-Day Weather Forecast

Advertisements
Track Severe Weather on mobile